Mauldin, SC (29662)

10:34 AM EST on December 21, 2014 (GMT -0500)
Heritage Lakes | Change Station
CLOSE
Current Station
Personal Weather Station
Location: Simpsonville, SC
Elevation: 910 ft
Nearby Weather Stations

Elev 910 ft 34.81 °N, 82.26 °W | Updated 23 seconds ago

Overcast
Overcast
44.0 °F
Feels Like 42 °F
N
4.0
Wind Variable Wind from East
Gusts 11.0 mph

Today
High -- | Low -- °F
--% Chance of Precip.
Yesterday
High -- | Low -- °F
Precip. -- in
7:32 AM 5:22 PM
Waning Crescent, 0% visible
Pressure 30.26 in
Visibility 4.0 miles
Clouds Overcast 3400 ft
Windchill 42 °F
Dew Point 40 °F
Humidity 86%
Rainfall 0.00 in
Snow Depth Not available.
UV 0 out of 12
Pollen .90 out of 12
Air Quality Not available.
Flu Activity Not available.
METAR KGYH 211447Z 08004KT 4SM BR OVC034 05/03 A3026

More Conditions Fewer Conditions

Pressure 30.26 in
Visibility 4.0 miles
Clouds Overcast 3400 ft
Windchill 42 °F
Dew Point 40 °F
Humidity 86%
Rainfall 0.00 in
Snow Depth Not available.
UV 0 out of 12
Pollen .90 out of 12
Air Quality Not available.
Flu Activity Not available.
METAR KGYH 211447Z 08004KT 4SM BR OVC034 05/03 A3026

More Conditions Fewer Conditions

10-Day Weather Forecast

Almanac

Astronomy

Dec. 21, 2014 Rise Set
Actual Time
Civil Twilight
Nautical Twilight
Astronomical Twilight
Moon
Length of Visible Light
Length of Day
Tomorrow will be .
, % of the Moon is Illuminated

Today's Extremes

State Highs State Lows

Community

WunderPhotos

Upload Photos

1,779,412 photos uploaded!

WunderBlogs® & News

Nearby

Air Quality

  Air Quality AQ Index Pollutant
Not available.

Snow Depth

Station Depth Elevation

Earthquake Activity

City Distance Mag. Time & Date
Minimum magnitude displayed is 2.5.

Coastal Water Temperatures

Place Temperature

Nearby Weather Stations